Αναφορές Αεροδρομίων

 

KSJC - San Jose, California, USA
Distance from station: ΒΑ 14km
Ενημερώθηκε: 23/07/2024 01:53
Αίθριος
Αίθριος
 Ανεμος από ΒΔ
Ανεμος: ΒΔ 19 km/h
Θερμοκρασία: 33°C
Σημείο Δρόσου: 16°C
Υγρασία: 36%
Βαρόμετρο: 1008.8 hPa
Clouds: Αίθριος
Visibility: 16 km
2024/07/22 22:53 KSJC 222253Z 32010KT 10SM CLR 33/16 A2979 RMK AO2 SLP088 T03330156
KNUQ - Moffett Nas/Mtn, California, USA
Distance from station: Β 14km
Ενημερώθηκε: 23/07/2024 01:50
Αίθριος
Αίθριος
 Ανεμος από ΒΒΔ
Ανεμος: ΒΒΔ 15 km/h
Θερμοκρασία: 27°C
Heat Index: 28°C
Σημείο Δρόσου: 16°C
Υγρασία: 51%
Βαρόμετρο: 1009.5 hPa
Clouds: Αίθριος
Visibility: 14 km
2024/07/22 22:50 KNUQ 222250Z AUTO 33008KT 9SM CLR 27/16 A2981 RMK AO2
 
KPAO - Palo Alto, California, USA
Distance from station: ΒΒΔ 23km
Ενημερώθηκε: 23/07/2024 01:47
Αίθριος
Αίθριος
 Ανεμος από ΒΒΔ
Ανεμος: ΒΒΔ 20 km/h
Θερμοκρασία: 26°C
Σημείο Δρόσου: 16°C
Υγρασία: 54%
Βαρόμετρο: 1009.5 hPa
Clouds: Αίθριος
Visibility: 16 km
2024/07/22 22:47 KPAO 222247Z 34011KT 10SM SKC 26/16 A2981
KRHV - San Jose/Reid, California, USA
Distance from station: ΑΒΑ 19km
Ενημερώθηκε: 23/07/2024 01:47
Αίθριος
Αίθριος
 Ανεμος από ΒΔ
Ανεμος: ΒΔ 13 km/h
Θερμοκρασία: 34°C
Σημείο Δρόσου: 14°C
Υγρασία: 30%
Βαρόμετρο: 1009.1 hPa
Clouds: Αίθριος
Visibility: 16 km
2024/07/22 22:47 KRHV 222247Z 32007KT 10SM SKC 34/14 A2980
 
KOAK - Oakland, California, USA
Distance from station: ΒΒΔ 50km
Ενημερώθηκε: 23/07/2024 01:53
Few Clouds
Few Clouds
 Ανεμος από ΒΔ
Ανεμος: ΒΔ 22 km/h
Θερμοκρασία: 24°C
Σημείο Δρόσου: 14°C
Υγρασία: 54%
Βαρόμετρο: 1009.8 hPa
Clouds: Few Clouds
Visibility: 16 km
Cloud details: Few Clouds 7620 m
2024/07/22 22:53 KOAK 222253Z 31012KT 10SM FEW250 24/14 A2982 RMK AO2 SLP097 T02390139
KSQL - San Carlos Airpo, California, USA
Distance from station: ΒΔ 34km
Ενημερώθηκε: 23/07/2024 01:47
Αίθριος
Αίθριος
 Ανεμος από ΒΔ
Ανεμος: ΒΔ 28 km/h
Θερμοκρασία: 26°C
Σημείο Δρόσου: 14°C
Υγρασία: 48%
Βαρόμετρο: 1009.8 hPa
Clouds: Αίθριος
Visibility: 16 km
2024/07/22 22:47 KSQL 222247Z 31015KT 10SM CLR 26/14 A2982
 
KSFO - San Francisco, California, USA
Distance from station: ΒΔ 49km
Ενημερώθηκε: 23/07/2024 01:56
Αίθριος
Αίθριος
 Ανεμος από ΔΒΔ
Ανεμος: ΔΒΔ 28 km/h
Θερμοκρασία: 21°C
Σημείο Δρόσου: 13°C
Υγρασία: 60%
Βαρόμετρο: 1009.5 hPa
Clouds: Αίθριος
Visibility: 16 km
2024/07/22 22:56 KSFO 222256Z 30015KT 10SM CLR 21/13 A2981 RMK AO2 SLP095 T02110128
KE16 - San Martin, California, USA
Distance from station: ΑΝΑ 43km
Ενημερώθηκε: 23/07/2024 01:35
Αίθριος
Αίθριος
 Ανεμος από Ν
Ανεμος: Ν 7 km/h
Θερμοκρασία: 34°C
Σημείο Δρόσου: 12°C
Υγρασία: 26%
Βαρόμετρο: 1009.8 hPa
Clouds: Αίθριος
Visibility: 16 km
2024/07/22 22:35 KE16 222235Z AUTO 19004KT 10SM CLR 34/12 A2982 RMK AO2 AWOS IS NOTAMED OS 07-22-2024 1800 TO 07-23-2024 0100 HRS UTC
 
KWVI - Watsonville, California, USA
Distance from station: ΝΝΑ 44km
Ενημερώθηκε: 23/07/2024 01:53
Αίθριος
Αίθριος
 Ανεμος από ΝΔ
Ανεμος: ΝΔ 13 km/h
Θερμοκρασία: 21°C
Σημείο Δρόσου: 13°C
Υγρασία: 60%
Βαρόμετρο: 1011.5 hPa
Clouds: Αίθριος
Visibility: 16 km
2024/07/22 22:53 KWVI 222253Z AUTO 23007KT 10SM CLR 21/13 A2987 RMK AO2 SLP115 T02110133
KHAF - Half Moon Bay, California, USA
Distance from station: ΔΒΔ 50km
Ενημερώθηκε: 23/07/2024 01:55
Mist, Συννεφιά
Mist, Συννεφιά
 Ανεμος από Ν
Ανεμος: Ν 17 km/h
Θερμοκρασία: 15°C
Σημείο Δρόσου: 13°C
Υγρασία: 88%
Βαρόμετρο: 1011.9 hPa
Περίληψη: Mist
Clouds: Συννεφιά
Visibility: 10 km
Cloud details: Συννεφιά 183 m
2024/07/22 22:55 KHAF 222255Z AUTO 17009KT 6SM BR OVC006 15/13 A2988 RMK AO2
 
KHWD - Hayward, California, USA
Distance from station: Β 44km
Ενημερώθηκε: 23/07/2024 01:54
Αίθριος
Αίθριος
 Ανεμος από ΔΒΔ
Ανεμος: ΔΒΔ 19 km/h
Θερμοκρασία: 28°C
Heat Index: 28°C
Σημείο Δρόσου: 15°C
Υγρασία: 45%
Βαρόμετρο: 1009.5 hPa
Clouds: Αίθριος
Visibility: 16 km
2024/07/22 22:54 KHWD 222254Z 29010KT 10SM CLR 28/15 A2981 RMK AO2 SLP101 T02780150
KLVK - Livermore, California, USA
Distance from station: ΒΒΑ 51km
Ενημερώθηκε: 23/07/2024 01:53
Αίθριος
Αίθριος
 Ανεμος από ΔΒΔ
Ανεμος: ΔΒΔ 17 km/h
Θερμοκρασία: 38°C
Σημείο Δρόσου: 14°C
Υγρασία: 24%
Βαρόμετρο: 1008.5 hPa
Clouds: Αίθριος
Visibility: 16 km
2024/07/22 22:53 KLVK 222253Z 29009KT 10SM CLR 38/14 A2978 RMK AO2 SLP078 T03780139